Latest Weather Observations for Ocean Reef

IDW60801

Issued at 11:43 am WST Tuesday 15 October 2019 (issued every 10 minutes, with the page automatically refreshed every 10 minutes)

About weather observations | Map of weather stations | Latest weather observations for WA | Other Formats
Station Details ID: 009214 Name: OCEAN REEF Lat: -31.76 Lon: 115.73 Height: 10.0 m
Data from the previous 72 hours. | See also: Recent months at Ocean Reef
Date/Time
WST
Temp
°C
App
Temp
°C
Dew
Point
°C
Rel
Hum
%
Delta-T
°C
Wind Press
QNH
hPa
Press
MSL
hPa
Rain since
9am
mm
Dir  Spd
km/h
Gust
km/h
Spd
kts
Gust
kts
15/11:30am - - - - - S 32 43 17 23 - - -
15/11:00am - - - - - S 30 39 16 21 - - -
15/10:30am - - - - - S 28 33 15 18 - - -
15/10:00am - - - - - S 24 33 13 18 - - -
15/09:30am - - - - - SSE 24 33 13 18 - - -
15/09:00am - - - - - SE 22 32 12 17 - - -
15/08:30am - - - - - SE 22 32 12 17 - - -
15/08:00am - - - - - SE 22 32 12 17 - - -
15/07:30am - - - - - ESE 17 26 9 14 - - -
15/07:00am - - - - - ESE 11 15 6 8 - - -
15/06:30am - - - - - ESE 13 15 7 8 - - -
15/06:00am - - - - - E 13 17 7 9 - - -
15/05:30am - - - - - ESE 13 15 7 8 - - -
15/05:00am - - - - - ESE 13 17 7 9 - - -
15/04:30am - - - - - ESE 13 19 7 10 - - -
15/04:00am - - - - - ESE 13 17 7 9 - - -
15/03:30am - - - - - SE 13 17 7 9 - - -
15/03:00am - - - - - SE 15 19 8 10 - - -
15/02:30am - - - - - SSE 17 22 9 12 - - -
15/02:00am - - - - - SSE 17 24 9 13 - - -
15/01:30am - - - - - SSE 19 28 10 15 - - -
15/01:00am - - - - - SSE 20 32 11 17 - - -
15/12:30am - - - - - SSE 26 33 14 18 - - -
15/12:00am - - - - - SSE 30 41 16 22 - - -
 
Date/Time
WST
Temp
°C
App
Temp
°C
Dew
Point
°C
Rel
Hum
%
Delta-T
°C
Wind Press
QNH
hPa
Press
MSL
hPa
Rain since
9am
mm
Dir  Spd
km/h
Gust
km/h
Spd
kts
Gust
kts
14/11:30pm - - - - - SSE 30 39 16 21 - - -
14/11:00pm - - - - - SSE 28 37 15 20 - - -
14/10:30pm - - - - - SSE 28 35 15 19 - - -
14/10:00pm - - - - - S 35 46 19 25 - - -
14/09:30pm - - - - - S 35 44 19 24 - - -
14/09:00pm - - - - - S 37 48 20 26 - - -
14/08:30pm - - - - - S 37 48 20 26 - - -
14/08:00pm - - - - - S 35 46 19 25 - - -
14/07:30pm - - - - - S 33 44 18 24 - - -
14/07:00pm - - - - - SSW 35 44 19 24 - - -
14/06:30pm - - - - - SSW 35 46 19 25 - - -
14/06:00pm - - - - - SSW 35 44 19 24 - - -
14/05:30pm - - - - - SSW 37 46 20 25 - - -
14/05:00pm - - - - - SSW 37 46 20 25 - - -
14/04:30pm - - - - - SSW 35 43 19 23 - - -
14/04:00pm - - - - - S 32 39 17 21 - - -
14/03:30pm - - - - - S 35 43 19 23 - - -
14/03:00pm - - - - - SSW 33 39 18 21 - - -
14/02:30pm - - - - - SSW 33 39 18 21 - - -
14/02:00pm - - - - - SSW 33 41 18 22 - - -
14/01:30pm - - - - - SSW 32 39 17 21 - - -
14/01:00pm - - - - - SSW 28 32 15 17 - - -
14/12:30pm - - - - - SSW 28 33 15 18 - - -
14/12:00pm - - - - - SSW 26 32 14 17 - - -
14/11:30am - - - - - SSW 28 32 15 17 - - -
14/11:00am - - - - - SSW 28 33 15 18 - - -
14/10:30am - - - - - SSW 26 32 14 17 - - -
14/10:00am - - - - - SSW 17 22 9 12 - - -
14/09:30am - - - - - S 13 19 7 10 - - -
14/09:00am - - - - - S 19 26 10 14 - - -
14/08:30am - - - - - S 19 26 10 14 - - -
14/08:00am - - - - - SSE 17 24 9 13 - - -
14/07:30am - - - - - SSE 19 24 10 13 - - -
14/07:00am - - - - - SSE 15 19 8 10 - - -
14/06:30am - - - - - SSE 13 17 7 9 - - -
14/06:00am - - - - - SSE 13 15 7 8 - - -
14/05:30am - - - - - SE 13 19 7 10 - - -
14/05:00am - - - - - SSE 11 15 6 8 - - -
14/04:30am - - - - - SSE 13 15 7 8 - - -
14/04:00am - - - - - SSE 11 13 6 7 - - -
14/03:30am - - - - - SE 11 17 6 9 - - -
14/03:00am - - - - - SSE 15 20 8 11 - - -
14/02:30am - - - - - SE 9 13 5 7 - - -
14/02:00am - - - - - SE 13 15 7 8 - - -
14/01:30am - - - - - SSE 13 15 7 8 - - -
14/01:00am - - - - - SW 28 32 15 17 - - -
14/12:30am - - - - - SW 26 32 14 17 - - -
14/12:00am - - - - - WSW 19 22 10 12 - - -
 
Date/Time
WST
Temp
°C
App
Temp
°C
Dew
Point
°C
Rel
Hum
%
Delta-T
°C
Wind Press
QNH
hPa
Press
MSL
hPa
Rain since
9am
mm
Dir  Spd
km/h
Gust
km/h
Spd
kts
Gust
kts
13/11:30pm - - - - - W 19 26 10 14 - - -
13/11:00pm - - - - - WSW 20 26 11 14 - - -
13/10:30pm - - - - - W 19 22 10 12 - - -
13/10:00pm - - - - - WSW 17 22 9 12 - - -
13/09:30pm - - - - - WSW 20 26 11 14 - - -
13/09:00pm - - - - - WSW 20 26 11 14 - - -
13/08:30pm - - - - - WSW 26 30 14 16 - - -
13/08:00pm - - - - - WSW 26 32 14 17 - - -
13/07:30pm - - - - - W 22 28 12 15 - - -
13/07:00pm - - - - - W 20 24 11 13 - - -
13/06:30pm - - - - - WSW 22 28 12 15 - - -
13/06:00pm - - - - - WSW 20 30 11 16 - - -
13/05:30pm - - - - - WSW 26 30 14 16 - - -
13/05:00pm - - - - - WSW 24 28 13 15 - - -
13/04:30pm - - - - - W 22 26 12 14 - - -
13/04:00pm - - - - - W 24 28 13 15 - - -
13/03:30pm - - - - - W 22 28 12 15 - - -
13/03:00pm - - - - - W 19 24 10 13 - - -
13/02:30pm - - - - - WNW 19 22 10 12 - - -
13/02:00pm - - - - - W 19 24 10 13 - - -
13/01:30pm - - - - - W 17 24 9 13 - - -
13/01:00pm - - - - - W 17 24 9 13 - - -
13/12:30pm - - - - - W 17 22 9 12 - - -
13/12:00pm - - - - - W 17 19 9 10 - - -
13/11:30am - - - - - W 15 17 8 9 - - -
13/11:00am - - - - - W 13 19 7 10 - - -
13/10:30am - - - - - W 11 15 6 8 - - -
13/10:00am - - - - - WNW 9 13 5 7 - - -
13/09:30am - - - - - NW 9 11 5 6 - - -
13/09:00am - - - - - NNW 11 15 6 8 - - -
13/08:30am - - - - - N 9 13 5 7 - - -
13/08:00am - - - - - NE 11 13 6 7 - - -
13/07:30am - - - - - NNE 15 19 8 10 - - -
13/07:00am - - - - - NE 13 15 7 8 - - -
13/06:30am - - - - - ENE 13 15 7 8 - - -
13/06:00am - - - - - ENE 13 15 7 8 - - -
13/05:30am - - - - - ENE 13 15 7 8 - - -
13/05:00am - - - - - ENE 11 13 6 7 - - -
13/04:30am - - - - - ENE 13 15 7 8 - - -
13/04:00am - - - - - E 15 17 8 9 - - -
13/03:30am - - - - - E 15 15 8 8 - - -
13/03:00am - - - - - E 15 17 8 9 - - -
13/02:30am - - - - - E 15 17 8 9 - - -
13/02:00am - - - - - ENE 11 15 6 8 - - -
13/01:30am - - - - - E 15 17 8 9 - - -
13/01:00am - - - - - ESE 11 13 6 7 - - -
13/12:30am - - - - - ESE 13 15 7 8 - - -
13/12:00am - - - - - ESE 13 17 7 9 - - -
 
Date/Time
WST
Temp
°C
App
Temp
°C
Dew
Point
°C
Rel
Hum
%
Delta-T
°C
Wind Press
QNH
hPa
Press
MSL
hPa
Rain since
9am
mm
Dir  Spd
km/h
Gust
km/h
Spd
kts
Gust
kts
12/11:30pm - - - - - SSE 13 26 7 14 - - -
12/11:00pm - - - - - S 24 32 13 17 - - -
12/10:30pm - - - - - S 24 30 13 16 - - -
12/10:00pm - - - - - S 20 28 11 15 - - -
12/09:30pm - - - - - S 24 30 13 16 - - -
12/09:00pm - - - - - S 28 33 15 18 - - -
12/08:30pm - - - - - SSW 30 37 16 20 - - -
12/08:00pm - - - - - SSW 30 37 16 20 - - -
12/07:30pm - - - - - SSW 30 37 16 20 - - -
12/07:00pm - - - - - SSW 30 35 16 19 - - -
12/06:30pm - - - - - SSW 30 35 16 19 - - -
12/06:00pm - - - - - SSW 30 35 16 19 - - -
12/05:30pm - - - - - SSW 32 39 17 21 - - -
12/05:00pm - - - - - SSW 32 37 17 20 - - -
12/04:30pm - - - - - SSW 30 37 16 20 - - -
12/04:00pm - - - - - SSW 33 39 18 21 - - -
12/03:30pm - - - - - SSW 30 37 16 20 - - -
12/03:00pm - - - - - SSW 28 33 15 18 - - -
12/02:30pm - - - - - SW 28 32 15 17 - - -
12/02:00pm - - - - - SW 26 30 14 16 - - -
12/01:30pm - - - - - SSW 26 32 14 17 - - -
12/01:00pm - - - - - SSW 24 30 13 16 - - -
12/12:30pm - - - - - SSW 28 32 15 17 - - -
12/12:00pm - - - - - SSW 26 32 14 17 - - -

Other formats

Comma delimited format used in spreadsheet applications
http://www.bom.gov.au/fwo/IDW60801/IDW60801.94607.axf

JavaScript Object Notation format (JSON) in row-major order
http://www.bom.gov.au/fwo/IDW60801/IDW60801.94607.json

Data quality

Most of these data are generated automatically and are frequently updated. Quality checks on data are not normally performed. It is possible for incorrect values to appear. Refer to information at About Latest Weather Observations and please check the disclaimer before using these data.